Time;durP1;ratioP1;P1;durP2;ratioP2;P2;SDS_P1;SDS_P2;PMS_P1;PMS_P2;Temp;Humidity;BMP_temperature;BMP_pressure;BME280_temperature;BME280_humidity;BME280_pressure;Samples;Min_cycle;Max_cycle;Signal;HPM_P1;HPM_P2
2021/10/06 00:17:37;;;;;;;13.73;5.85;;;;;;;;;;4810617;27;20208;-69
2021/10/06 00:20:04;;;;;;;11.07;5.70;;;;;;;;;;4290406;33;20530;-70
2021/10/06 00:22:30;;;;;;;11.10;6.53;;;;;;;;;;4288529;33;20099;-70
2021/10/06 00:24:56;;;;;;;10.35;6.93;;;;;;;;;;4288545;33;20106;-70
2021/10/06 00:27:22;;;;;;;16.48;6.95;;;;;;;;;;4288666;33;20123;-70
2021/10/06 00:29:47;;;;;;;11.32;7.80;;;;;;;;;;4288474;33;20116;-70
2021/10/06 00:32:13;;;;;;;9.80;7.00;;;;;;;;;;4287206;33;20194;-70
2021/10/06 00:34:39;;;;;;;10.95;7.30;;;;;;;;;;4288336;33;20135;-70
2021/10/06 00:37:05;;;;;;;9.45;6.65;;;;;;;;;;4288388;33;20116;-70
2021/10/06 00:39:31;;;;;;;11.27;7.53;;;;;;;;;;4288676;33;20112;-69
2021/10/06 00:41:57;;;;;;;11.98;7.82;;;;;;;;;;4288565;33;20096;-70
2021/10/06 00:44:23;;;;;;;12.88;7.75;;;;;;;;;;4286885;33;20118;-70
2021/10/06 00:46:50;;;;;;;15.48;7.55;;;;;;;;;;4286808;33;20099;-71
2021/10/06 00:49:18;;;;;;;15.38;8.20;;;;;;;;;;4288320;33;20139;-70
2021/10/06 00:51:44;;;;;;;14.98;8.60;;;;;;;;;;4288319;33;20096;-69
2021/10/06 00:54:10;;;;;;;21.33;11.07;;;;;;;;;;4290324;33;20110;-69
2021/10/06 00:56:36;;;;;;;15.38;9.38;;;;;;;;;;4290428;33;20099;-69
2021/10/06 00:59:02;;;;;;;18.30;9.43;;;;;;;;;;4289160;33;20096;-69
2021/10/06 01:01:28;;;;;;;14.75;8.73;;;;;;;;;;4290679;33;20202;-69
2021/10/06 01:03:54;;;;;;;13.13;8.70;;;;;;;;;;4290083;33;20199;-70
2021/10/06 01:06:19;;;;;;;12.88;9.30;;;;;;;;;;4290500;33;20214;-69
2021/10/06 01:08:46;;;;;;;16.00;7.55;;;;;;;;;;4290364;33;20132;-69
2021/10/06 01:11:12;;;;;;;13.48;7.95;;;;;;;;;;4289656;33;20143;-69
2021/10/06 01:13:38;;;;;;;13.30;7.70;;;;;;;;;;4289141;33;20123;-69
2021/10/06 01:16:04;;;;;;;12.90;7.45;;;;;;;;;;4289281;33;20126;-69
2021/10/06 01:18:31;;;;;;;14.80;7.20;;;;;;;;;;4290322;33;20196;-70
2021/10/06 01:20:57;;;;;;;9.50;5.70;;;;;;;;;;4288897;33;20090;-69
2021/10/06 01:23:24;;;;;;;9.45;6.40;;;;;;;;;;4290402;33;20451;-68
2021/10/06 01:25:50;;;;;;;10.30;7.18;;;;;;;;;;4290410;33;20115;-69
2021/10/06 01:28:16;;;;;;;12.18;7.93;;;;;;;;;;4290211;33;20135;-69
2021/10/06 01:30:42;;;;;;;14.65;8.15;;;;;;;;;;4290240;33;20202;-69
2021/10/06 01:33:08;;;;;;;15.93;8.52;;;;;;;;;;4288788;33;20159;-69
2021/10/06 01:35:33;;;;;;;16.37;9.20;;;;;;;;;;4290257;33;20126;-69
2021/10/06 01:37:59;;;;;;;12.65;8.43;;;;;;;;;;4288931;33;20116;-68
2021/10/06 01:40:25;;;;;;;15.60;9.40;;;;;;;;;;4289017;33;20519;-69
2021/10/06 01:42:52;;;;;;;16.55;8.95;;;;;;;;;;4288864;33;20123;-69
2021/10/06 01:45:26;;;;;;;10.52;6.53;;;;;;;;;;4289069;33;20130;-69
2021/10/06 01:47:52;;;;;;;13.05;7.93;;;;;;;;;;4290470;33;20122;-69
2021/10/06 01:50:25;;;;;;;14.10;8.13;;;;;;;;;;4290272;33;20104;-69
2021/10/06 01:52:52;;;;;;;15.15;8.32;;;;;;;;;;4290215;33;20123;-69
2021/10/06 01:55:26;;;;;;;12.18;8.27;;;;;;;;;;4290006;33;20210;-69
2021/10/06 01:57:52;;;;;;;13.30;8.13;;;;;;;;;;4289947;33;20124;-69
2021/10/06 02:00:18;;;;;;;12.27;7.90;;;;;;;;;;4289936;33;20275;-69
2021/10/06 02:02:44;;;;;;;11.73;7.75;;;;;;;;;;4288554;33;20178;-69
2021/10/06 02:05:10;;;;;;;14.93;7.70;;;;;;;;;;4289839;33;20123;-69
2021/10/06 02:07:36;;;;;;;11.35;7.40;;;;;;;;;;4290080;33;20119;-69
2021/10/06 02:10:02;;;;;;;9.43;6.57;;;;;;;;;;4288793;33;20108;-69
2021/10/06 02:12:28;;;;;;;12.82;7.55;;;;;;;;;;4289920;33;20522;-70
2021/10/06 02:14:54;;;;;;;9.90;7.20;;;;;;;;;;4289871;33;20126;-69
2021/10/06 02:17:20;;;;;;;10.70;7.32;;;;;;;;;;4289569;33;20205;-69
2021/10/06 02:19:46;;;;;;;11.95;6.95;;;;;;;;;;4289824;33;20123;-69
2021/10/06 02:22:12;;;;;;;12.27;6.78;;;;;;;;;;4289886;33;20092;-69
2021/10/06 02:24:37;;;;;;;12.77;6.93;;;;;;;;;;4300447;33;20215;-69
2021/10/06 02:27:03;;;;;;;9.63;6.87;;;;;;;;;;4288399;33;20100;-69
2021/10/06 02:29:29;;;;;;;8.00;4.78;;;;;;;;;;4289826;33;20108;-69
2021/10/06 02:31:55;;;;;;;7.85;5.70;;;;;;;;;;4290025;33;20138;-69
2021/10/06 02:34:21;;;;;;;9.00;5.95;;;;;;;;;;4289987;33;20316;-69
2021/10/06 02:36:47;;;;;;;11.35;6.55;;;;;;;;;;4289823;33;20134;-69
2021/10/06 02:39:12;;;;;;;10.32;6.53;;;;;;;;;;4289750;33;20669;-70
2021/10/06 02:41:38;;;;;;;9.25;6.22;;;;;;;;;;4288176;33;20111;-69
2021/10/06 02:44:04;;;;;;;11.02;5.62;;;;;;;;;;4289602;33;20237;-69
2021/10/06 02:46:31;;;;;;;8.27;5.80;;;;;;;;;;4289881;33;20214;-69
2021/10/06 02:48:57;;;;;;;11.00;5.97;;;;;;;;;;4289467;33;20103;-69
2021/10/06 02:51:23;;;;;;;9.00;6.75;;;;;;;;;;4289806;33;20514;-69
2021/10/06 02:53:49;;;;;;;9.95;6.12;;;;;;;;;;4289708;33;20112;-70
2021/10/06 02:56:14;;;;;;;10.90;7.43;;;;;;;;;;4289653;33;20107;-69
2021/10/06 02:58:40;;;;;;;12.15;6.87;;;;;;;;;;4289474;33;20609;-69
2021/10/06 03:01:06;;;;;;;11.52;6.87;;;;;;;;;;4288050;33;20146;-70
2021/10/06 03:03:32;;;;;;;13.88;7.05;;;;;;;;;;4289380;33;20553;-69
2021/10/06 03:05:58;;;;;;;11.98;6.65;;;;;;;;;;4288018;33;20183;-69
2021/10/06 03:08:24;;;;;;;12.30;7.00;;;;;;;;;;4289544;33;20096;-70
2021/10/06 03:10:50;;;;;;;11.77;6.28;;;;;;;;;;4289948;33;20111;-69
2021/10/06 03:13:16;;;;;;;9.27;6.55;;;;;;;;;;4289572;33;20099;-69
2021/10/06 03:15:43;;;;;;;11.45;5.95;;;;;;;;;;4288399;33;20123;-70
2021/10/06 03:18:08;;;;;;;10.43;6.32;;;;;;;;;;4289054;33;20141;-70
2021/10/06 03:20:36;;;;;;;12.85;6.37;;;;;;;;;;4289013;33;20209;-71
2021/10/06 03:23:05;;;;;;;20.58;9.38;;;;;;;;;;4289139;33;20127;-71
2021/10/06 03:25:32;;;;;;;13.43;6.62;;;;;;;;;;4289298;33;20428;-71
2021/10/06 03:27:57;;;;;;;7.62;6.12;;;;;;;;;;4289336;33;20112;-68
2021/10/06 03:30:23;;;;;;;41.80;8.35;;;;;;;;;;4289095;33;20110;-70
2021/10/06 03:32:49;;;;;;;14.65;6.75;;;;;;;;;;4289088;33;20538;-70
2021/10/06 03:35:18;;;;;;;17.75;8.02;;;;;;;;;;4275683;33;20139;-69
2021/10/06 03:37:47;;;;;;;11.60;7.80;;;;;;;;;;4289112;33;20147;-66
2021/10/06 03:40:13;;;;;;;11.75;5.87;;;;;;;;;;4289309;33;20197;-69
2021/10/06 03:42:39;;;;;;;17.55;8.05;;;;;;;;;;4288901;33;20134;-71
2021/10/06 03:45:06;;;;;;;15.90;7.50;;;;;;;;;;4289349;33;20199;-70
2021/10/06 03:47:32;;;;;;;10.15;7.22;;;;;;;;;;4289073;33;20100;-68
2021/10/06 03:49:58;;;;;;;12.37;7.55;;;;;;;;;;4288930;33;20259;-67
2021/10/06 03:52:24;;;;;;;17.98;7.22;;;;;;;;;;4288899;33;20108;-69
2021/10/06 03:54:50;;;;;;;18.85;8.98;;;;;;;;;;4288815;33;20211;-68
2021/10/06 03:57:16;;;;;;;13.35;8.05;;;;;;;;;;4288719;33;20238;-68
2021/10/06 03:59:42;;;;;;;17.83;9.32;;;;;;;;;;4288760;33;20143;-69
2021/10/06 04:02:08;;;;;;;65.10;12.10;;;;;;;;;;4288881;33;20489;-69
2021/10/06 04:04:34;;;;;;;24.90;10.95;;;;;;;;;;4288761;33;20099;-68
2021/10/06 04:06:59;;;;;;;29.40;11.77;;;;;;;;;;4288923;33;20110;-70
2021/10/06 04:09:25;;;;;;;17.50;9.52;;;;;;;;;;4288779;33;20163;-68
2021/10/06 04:11:51;;;;;;;20.27;10.43;;;;;;;;;;4288587;33;20190;-69
2021/10/06 04:14:17;;;;;;;18.75;8.95;;;;;;;;;;4288696;33;20099;-69
2021/10/06 04:16:43;;;;;;;17.05;8.32;;;;;;;;;;4288316;33;20543;-68
2021/10/06 04:19:09;;;;;;;17.83;9.48;;;;;;;;;;4288545;33;20136;-68
2021/10/06 04:21:35;;;;;;;21.40;7.03;;;;;;;;;;4288786;33;20115;-68
2021/10/06 04:24:01;;;;;;;26.17;9.38;;;;;;;;;;4288594;33;20127;-69
2021/10/06 04:26:26;;;;;;;27.25;9.20;;;;;;;;;;4278553;33;20127;-68
2021/10/06 04:28:52;;;;;;;18.83;9.45;;;;;;;;;;4275235;33;20116;-68
2021/10/06 04:31:19;;;;;;;19.95;10.48;;;;;;;;;;4275791;33;20103;-67
2021/10/06 04:33:48;;;;;;;17.15;9.10;;;;;;;;;;4276116;33;20202;-67
2021/10/06 04:36:14;;;;;;;19.02;8.23;;;;;;;;;;4276160;33;20178;-68
2021/10/06 04:38:40;;;;;;;26.40;9.73;;;;;;;;;;4275939;33;20595;-67
2021/10/06 04:41:07;;;;;;;15.00;8.07;;;;;;;;;;4276048;33;20558;-68
2021/10/06 04:43:33;;;;;;;16.92;8.43;;;;;;;;;;4276081;33;20226;-68
2021/10/06 04:45:59;;;;;;;14.10;8.05;;;;;;;;;;4275651;33;20139;-68
2021/10/06 04:48:24;;;;;;;22.02;8.70;;;;;;;;;;4275992;33;20595;-68
2021/10/06 04:50:50;;;;;;;19.75;8.70;;;;;;;;;;4275991;33;20092;-67
2021/10/06 04:53:17;;;;;;;16.27;8.43;;;;;;;;;;4275456;33;20130;-68
2021/10/06 04:55:44;;;;;;;16.92;8.23;;;;;;;;;;4275885;33;20537;-69
2021/10/06 04:58:09;;;;;;;20.37;10.35;;;;;;;;;;4275857;33;20198;-68
2021/10/06 05:00:35;;;;;;;20.10;10.73;;;;;;;;;;4275815;33;20135;-68
2021/10/06 05:03:08;;;;;;;24.20;8.43;;;;;;;;;;4276239;33;20601;-69
2021/10/06 05:05:34;;;;;;;18.90;8.90;;;;;;;;;;4276058;33;20201;-69
2021/10/06 05:08:00;;;;;;;14.50;7.87;;;;;;;;;;4275725;33;20128;-68
2021/10/06 05:10:26;;;;;;;19.80;8.27;;;;;;;;;;4275500;33;20531;-68
2021/10/06 05:12:52;;;;;;;13.02;7.53;;;;;;;;;;4275921;33;20120;-68
2021/10/06 05:15:18;;;;;;;15.38;8.23;;;;;;;;;;4275607;33;20543;-68
2021/10/06 05:17:44;;;;;;;35.33;11.98;;;;;;;;;;4280294;33;20104;-69
2021/10/06 05:20:10;;;;;;;28.83;13.95;;;;;;;;;;4288578;33;20217;-69
2021/10/06 05:22:36;;;;;;;30.33;14.05;;;;;;;;;;4290063;33;20230;-68
2021/10/06 05:25:03;;;;;;;21.33;8.07;;;;;;;;;;4289954;33;20531;-68
2021/10/06 05:27:30;;;;;;;20.08;9.57;;;;;;;;;;4288748;33;20124;-68
2021/10/06 05:29:57;;;;;;;14.43;7.03;;;;;;;;;;4289146;33;20617;-68
2021/10/06 05:32:23;;;;;;;11.68;6.35;;;;;;;;;;4276679;33;20267;-69
2021/10/06 05:34:49;;;;;;;15.95;7.10;;;;;;;;;;4289699;33;20126;-69
2021/10/06 05:37:15;;;;;;;14.68;5.65;;;;;;;;;;4289478;33;20095;-68
2021/10/06 05:39:41;;;;;;;11.68;5.90;;;;;;;;;;4289057;33;20126;-68
2021/10/06 05:42:06;;;;;;;14.75;6.70;;;;;;;;;;4289875;33;20654;-68
2021/10/06 05:44:32;;;;;;;15.40;6.95;;;;;;;;;;4289547;33;20119;-68
2021/10/06 05:46:58;;;;;;;10.52;5.72;;;;;;;;;;4289368;33;20119;-68
2021/10/06 05:49:24;;;;;;;14.85;5.90;;;;;;;;;;4289390;33;20397;-68
2021/10/06 05:51:50;;;;;;;11.80;6.50;;;;;;;;;;4288538;33;20119;-68
2021/10/06 05:54:16;;;;;;;10.68;5.32;;;;;;;;;;4289507;33;20187;-68
2021/10/06 05:56:42;;;;;;;11.65;5.75;;;;;;;;;;4289656;33;20111;-68
2021/10/06 05:59:08;;;;;;;9.48;5.18;;;;;;;;;;4289625;33;20091;-67
2021/10/06 06:01:33;;;;;;;11.02;5.35;;;;;;;;;;4289273;33;20298;-67
2021/10/06 06:03:59;;;;;;;15.75;4.80;;;;;;;;;;4289679;33;20579;-69
2021/10/06 06:06:25;;;;;;;10.20;5.53;;;;;;;;;;4289616;33;20511;-69
2021/10/06 06:08:51;;;;;;;13.55;5.50;;;;;;;;;;4289453;33;20590;-68
2021/10/06 06:11:17;;;;;;;13.32;5.82;;;;;;;;;;4287726;33;20178;-68
2021/10/06 06:13:43;;;;;;;9.07;5.37;;;;;;;;;;4289678;33;20095;-68
2021/10/06 06:16:09;;;;;;;9.18;5.53;;;;;;;;;;4289491;33;20530;-68
2021/10/06 06:18:35;;;;;;;10.57;5.85;;;;;;;;;;4289467;33;20626;-70
2021/10/06 06:21:01;;;;;;;8.73;5.87;;;;;;;;;;4289393;33;20115;-69
2021/10/06 06:23:28;;;;;;;9.73;5.18;;;;;;;;;;4287911;33;20887;-69
2021/10/06 06:25:54;;;;;;;10.88;5.37;;;;;;;;;;4289380;33;20456;-69
2021/10/06 06:28:20;;;;;;;8.13;5.40;;;;;;;;;;4289707;33;20127;-69
2021/10/06 06:30:46;;;;;;;8.75;5.22;;;;;;;;;;4288067;33;20101;-70
2021/10/06 06:33:12;;;;;;;9.70;4.93;;;;;;;;;;4289766;33;20114;-70
2021/10/06 06:35:37;;;;;;;7.53;4.57;;;;;;;;;;4289162;33;20132;-69
2021/10/06 06:38:03;;;;;;;7.37;4.60;;;;;;;;;;4289497;33;20111;-68
2021/10/06 06:40:29;;;;;;;6.47;4.55;;;;;;;;;;4289209;33;20122;-68
2021/10/06 06:42:55;;;;;;;7.12;4.95;;;;;;;;;;4289516;33;20188;-68
2021/10/06 06:45:21;;;;;;;7.55;4.22;;;;;;;;;;4289396;33;20219;-68
2021/10/06 06:47:47;;;;;;;7.45;4.65;;;;;;;;;;4289196;33;20112;-69
2021/10/06 06:50:14;;;;;;;7.72;4.40;;;;;;;;;;4286629;33;20291;-69
2021/10/06 06:52:40;;;;;;;13.55;4.25;;;;;;;;;;4283725;33;20160;-69
2021/10/06 06:55:06;;;;;;;4.95;4.10;;;;;;;;;;4289280;33;20220;-69
2021/10/06 06:57:32;;;;;;;6.30;3.40;;;;;;;;;;4276018;33;20199;-69
2021/10/06 06:59:58;;;;;;;5.15;3.67;;;;;;;;;;4288791;33;20095;-68
2021/10/06 07:02:24;;;;;;;4.72;4.03;;;;;;;;;;4289432;33;20108;-68
2021/10/06 07:04:50;;;;;;;9.30;4.53;;;;;;;;;;4289137;33;20447;-69
2021/10/06 07:07:16;;;;;;;5.82;3.28;;;;;;;;;;4288557;33;20127;-68
2021/10/06 07:09:47;;;;;;;5.03;3.75;;;;;;;;;;4289323;33;20159;-69
2021/10/06 07:12:18;;;;;;;5.55;3.78;;;;;;;;;;4287489;33;20139;-68
2021/10/06 07:14:44;;;;;;;7.22;3.83;;;;;;;;;;4288647;33;20122;-69
2021/10/06 07:17:10;;;;;;;6.47;3.78;;;;;;;;;;4288737;33;20131;-68
2021/10/06 07:19:36;;;;;;;6.72;3.78;;;;;;;;;;4289421;33;20500;-68
2021/10/06 07:22:02;;;;;;;4.87;3.33;;;;;;;;;;4288564;33;20124;-69
2021/10/06 07:24:28;;;;;;;4.18;3.33;;;;;;;;;;4287422;33;20111;-68
2021/10/06 07:26:54;;;;;;;5.45;3.25;;;;;;;;;;4287231;33;20214;-69
2021/10/06 07:29:20;;;;;;;13.32;3.65;;;;;;;;;;4289084;33;20131;-70
2021/10/06 07:31:46;;;;;;;4.18;3.40;;;;;;;;;;4289119;33;20116;-70
2021/10/06 07:34:12;;;;;;;4.22;3.40;;;;;;;;;;4289154;33;20115;-71
2021/10/06 07:36:38;;;;;;;7.53;4.28;;;;;;;;;;4279984;33;20104;-69
2021/10/06 07:39:04;;;;;;;4.25;3.33;;;;;;;;;;4288837;33;20115;-69
2021/10/06 07:41:30;;;;;;;4.62;3.50;;;;;;;;;;4288597;33;20124;-68
2021/10/06 07:43:56;;;;;;;5.55;3.80;;;;;;;;;;4289105;33;20084;-68
2021/10/06 07:46:22;;;;;;;5.45;4.03;;;;;;;;;;4288777;33;20138;-68
2021/10/06 07:48:48;;;;;;;4.70;3.83;;;;;;;;;;4288774;33;20118;-69
2021/10/06 07:51:14;;;;;;;6.90;3.80;;;;;;;;;;4288505;33;20119;-69
2021/10/06 07:53:40;;;;;;;10.52;4.50;;;;;;;;;;4287791;33;20115;-68
2021/10/06 07:56:06;;;;;;;8.38;4.62;;;;;;;;;;4288926;33;20128;-68
2021/10/06 07:58:32;;;;;;;7.72;4.05;;;;;;;;;;4287355;33;20111;-68
2021/10/06 08:00:58;;;;;;;5.78;3.35;;;;;;;;;;4286897;33;20108;-68
2021/10/06 08:03:24;;;;;;;6.20;3.30;;;;;;;;;;4290888;33;20190;-68
2021/10/06 08:05:50;;;;;;;5.80;4.00;;;;;;;;;;4290871;33;20166;-68
2021/10/06 08:08:15;;;;;;;5.12;3.72;;;;;;;;;;4291036;33;20123;-68
2021/10/06 08:10:41;;;;;;;6.15;3.87;;;;;;;;;;4290530;33;20195;-68
2021/10/06 08:13:07;;;;;;;7.90;4.47;;;;;;;;;;4290425;33;20142;-68
2021/10/06 08:15:34;;;;;;;5.47;3.92;;;;;;;;;;4290611;33;20108;-70
2021/10/06 08:18:01;;;;;;;5.45;3.78;;;;;;;;;;4289485;33;20107;-68
2021/10/06 08:20:32;;;;;;;5.75;3.90;;;;;;;;;;4289179;33;20092;-68
2021/10/06 08:23:00;;;;;;;4.78;3.12;;;;;;;;;;4290612;33;20127;-70
2021/10/06 08:25:26;;;;;;;4.78;2.92;;;;;;;;;;4287097;33;20115;-70
2021/10/06 08:27:54;;;;;;;5.30;3.00;;;;;;;;;;4290530;33;20126;-69
2021/10/06 08:30:21;;;;;;;7.82;2.67;;;;;;;;;;4277375;33;20104;-69
2021/10/06 08:32:47;;;;;;;3.95;2.83;;;;;;;;;;4290519;33;20530;-69
2021/10/06 08:35:13;;;;;;;15.35;3.97;;;;;;;;;;4290428;33;20190;-69
2021/10/06 08:37:39;;;;;;;5.87;3.37;;;;;;;;;;4288566;33;20519;-69
2021/10/06 08:40:05;;;;;;;4.87;3.50;;;;;;;;;;4290560;33;20112;-69
2021/10/06 08:42:32;;;;;;;4.68;3.20;;;;;;;;;;4290446;33;20112;-69
2021/10/06 08:45:00;;;;;;;4.10;3.50;;;;;;;;;;4290609;33;20119;-70
2021/10/06 08:47:26;;;;;;;5.05;3.30;;;;;;;;;;4290868;33;20600;-69
2021/10/06 08:49:52;;;;;;;6.10;3.15;;;;;;;;;;4288840;33;20100;-68
2021/10/06 08:52:18;;;;;;;4.45;3.40;;;;;;;;;;4289569;33;20115;-68
2021/10/06 08:54:44;;;;;;;5.97;3.47;;;;;;;;;;4290230;33;20138;-68
2021/10/06 08:57:16;;;;;;;6.25;4.18;;;;;;;;;;4290326;33;20219;-68
2021/10/06 08:59:43;;;;;;;5.68;3.60;;;;;;;;;;4290611;33;20183;-69
2021/10/06 09:02:11;;;;;;;5.15;3.45;;;;;;;;;;4289692;33;20119;-68
2021/10/06 09:04:36;;;;;;;6.47;3.30;;;;;;;;;;4290587;33;20547;-69
2021/10/06 09:07:02;;;;;;;3.10;2.78;;;;;;;;;;4290181;33;20182;-70
2021/10/06 09:09:31;;;;;;;3.95;2.83;;;;;;;;;;4288871;33;20112;-69
2021/10/06 09:11:59;;;;;;;5.40;2.80;;;;;;;;;;4290232;33;20152;-69
2021/10/06 09:14:25;;;;;;;4.10;2.65;;;;;;;;;;4287932;33;20794;-70
2021/10/06 09:17:16;;;;;;;3.28;2.65;;;;;;;;;;4289986;33;20104;-69
2021/10/06 09:19:53;;;;;;;4.22;3.00;;;;;;;;;;4290277;33;20127;-69
2021/10/06 09:22:24;;;;;;;4.32;2.47;;;;;;;;;;4289728;33;20123;-69
2021/10/06 09:24:57;;;;;;;3.20;2.65;;;;;;;;;;4290140;33;20545;-68
2021/10/06 09:27:28;;;;;;;5.18;3.22;;;;;;;;;;4289627;33;20099;-69
2021/10/06 09:30:04;;;;;;;4.07;3.08;;;;;;;;;;4276731;33;20108;-70
2021/10/06 09:32:37;;;;;;;4.97;3.37;;;;;;;;;;4290195;33;20126;-69
2021/10/06 09:35:11;;;;;;;4.75;3.42;;;;;;;;;;4277354;33;20555;-69
2021/10/06 09:37:38;;;;;;;4.87;2.90;;;;;;;;;;4289936;33;20115;-69
2021/10/06 09:40:06;;;;;;;5.03;3.20;;;;;;;;;;4290060;33;20123;-70
2021/10/06 09:42:43;;;;;;;4.68;3.70;;;;;;;;;;4289877;33;20240;-68
2021/10/06 09:45:09;;;;;;;5.12;3.22;;;;;;;;;;4288440;33;20104;-69
2021/10/06 09:47:35;;;;;;;6.37;3.42;;;;;;;;;;4288731;33;20123;-68
2021/10/06 09:50:01;;;;;;;8.38;3.62;;;;;;;;;;4289632;33;20447;-68
2021/10/06 09:52:37;;;;;;;8.50;3.05;;;;;;;;;;4288960;33;20123;-69
2021/10/06 09:55:06;;;;;;;;;;;;;;;;;;4290501;33;20091;-70
2021/10/06 09:57:38;;;;;;;4.00;3.15;;;;;;;;;;4289805;33;19993;-69
2021/10/06 10:00:17;;;;;;;3.85;2.87;;;;;;;;;;4289900;33;20127;-69
2021/10/06 10:02:43;;;;;;;3.83;3.10;;;;;;;;;;4287942;33;20190;-69
2021/10/06 10:05:10;;;;;;;3.83;2.92;;;;;;;;;;4289634;33;20103;-69
2021/10/06 10:07:36;;;;;;;3.45;2.67;;;;;;;;;;4288691;33;20130;-70
2021/10/06 10:10:04;;;;;;;3.15;2.45;;;;;;;;;;4289166;33;20538;-70
2021/10/06 10:12:30;;;;;;;2.75;2.30;;;;;;;;;;4288513;33;20123;-70
2021/10/06 10:14:56;;;;;;;3.10;2.30;;;;;;;;;;4289236;33;20123;-70
2021/10/06 10:17:22;;;;;;;2.70;2.15;;;;;;;;;;4289229;33;20438;-69
2021/10/06 10:19:54;;;;;;;4.43;2.22;;;;;;;;;;4288449;33;20636;-69
2021/10/06 10:22:20;;;;;;;3.67;2.40;;;;;;;;;;4287826;33;20483;-68
2021/10/06 10:24:47;;;;;;;5.00;2.12;;;;;;;;;;4287677;33;20429;-69
2021/10/06 10:27:14;;;;;;;4.10;2.08;;;;;;;;;;4289519;33;20092;-70
2021/10/06 10:29:51;;;;;;;2.20;2.00;;;;;;;;;;4288260;33;20122;-70
2021/10/06 10:32:18;;;;;;;5.28;3.03;;;;;;;;;;4276948;33;20191;-70
2021/10/06 10:34:57;;;;;;;2.67;1.87;;;;;;;;;;4289379;33;20201;-69
2021/10/06 10:37:53;;;;;;;4.68;2.20;;;;;;;;;;4289339;33;20114;-73
2021/10/06 10:40:34;;;;;;;4.22;2.50;;;;;;;;;;4289129;33;20131;-71
2021/10/06 10:43:13;;;;;;;3.05;2.47;;;;;;;;;;4289407;33;20171;-71
2021/10/06 10:45:41;;;;;;;4.45;2.75;;;;;;;;;;4289503;33;20118;-69
2021/10/06 10:48:08;;;;;;;3.78;2.45;;;;;;;;;;4289626;33;20265;-68
2021/10/06 10:50:57;;;;;;;3.40;2.30;;;;;;;;;;4289355;33;20107;-70
2021/10/06 10:53:51;;;;;;;2.97;2.00;;;;;;;;;;4282412;33;20118;-71
2021/10/06 10:56:45;;;;;;;2.90;2.25;;;;;;;;;;4289313;33;20136;-70
2021/10/06 10:59:12;;;;;;;3.17;2.50;;;;;;;;;;4289347;33;20102;-70
2021/10/06 11:01:46;;;;;;;3.22;2.35;;;;;;;;;;4280285;33;20460;-69
2021/10/06 11:04:35;;;;;;;3.95;2.55;;;;;;;;;;4288774;33;20112;-69
2021/10/06 11:07:14;;;;;;;2.72;2.20;;;;;;;;;;4276041;33;20188;-70
2021/10/06 11:09:59;;;;;;;4.10;2.00;;;;;;;;;;4289216;33;20099;-70
2021/10/06 11:12:25;;;;;;;3.47;2.35;;;;;;;;;;4286828;33;20456;-70
2021/10/06 11:15:13;;;;;;;3.20;2.22;;;;;;;;;;4288977;33;20203;-70
2021/10/06 11:18:08;;;;;;;2.90;2.20;;;;;;;;;;4289013;33;20217;-71
2021/10/06 11:20:48;;;;;;;3.10;2.62;;;;;;;;;;4289155;33;20124;-70
2021/10/06 11:23:30;;;;;;;3.17;2.80;;;;;;;;;;4289501;33;20136;-70
2021/10/06 11:25:56;;;;;;;2.83;1.90;;;;;;;;;;4288795;33;20096;-70
2021/10/06 11:28:22;;;;;;;3.55;2.10;;;;;;;;;;4288790;33;20190;-71
2021/10/06 11:30:58;;;;;;;5.50;2.58;;;;;;;;;;4287473;33;20436;-69
2021/10/06 11:33:27;;;;;;;4.10;2.33;;;;;;;;;;4289027;33;20108;-70
2021/10/06 11:36:34;;;;;;;4.10;2.20;;;;;;;;;;4286581;33;20694;-69
2021/10/06 11:39:10;;;;;;;3.78;2.10;;;;;;;;;;4287580;33;20104;-68
2021/10/06 11:41:40;;;;;;;4.95;2.00;;;;;;;;;;4288789;33;20191;-70
2021/10/06 11:44:06;;;;;;;5.60;2.95;;;;;;;;;;4287575;33;20122;-68
2021/10/06 11:46:32;;;;;;;6.28;2.35;;;;;;;;;;4288661;33;20127;-69
2021/10/06 11:49:06;;;;;;;5.65;2.53;;;;;;;;;;4288976;33;20103;-68
2021/10/06 11:51:53;;;;;;;2.50;2.10;;;;;;;;;;4288266;33;20451;-70
2021/10/06 11:54:22;;;;;;;4.25;2.00;;;;;;;;;;4288499;33;20108;-69
2021/10/06 11:56:49;;;;;;;2.45;2.17;;;;;;;;;;4287324;33;20096;-67
2021/10/06 11:59:17;;;;;;;2.70;2.30;;;;;;;;;;4288740;33;20102;-68
2021/10/06 12:01:56;;;;;;;3.05;2.42;;;;;;;;;;4288432;33;20120;-68
2021/10/06 12:04:25;;;;;;;2.85;2.17;;;;;;;;;;4288634;33;20617;-70
2021/10/06 12:06:59;;;;;;;2.45;1.87;;;;;;;;;;4287651;33;20123;-69
2021/10/06 12:09:38;;;;;;;3.63;2.60;;;;;;;;;;4286471;33;20112;-70
2021/10/06 12:12:08;;;;;;;4.12;2.97;;;;;;;;;;4289006;33;20213;-69
2021/10/06 12:14:49;;;;;;;1.33;0.95;;;;;;;;;;4289018;33;20088;-69
2021/10/06 12:17:16;;;;;;;2.08;1.73;;;;;;;;;;4287249;33;20107;-69
2021/10/06 12:19:53;;;;;;;3.12;2.17;;;;;;;;;;4288619;33;20104;-68
2021/10/06 12:22:18;;;;;;;3.35;2.12;;;;;;;;;;4288669;33;20127;-69
2021/10/06 12:24:44;;;;;;;3.95;2.33;;;;;;;;;;4288441;33;20448;-68
2021/10/06 12:27:30;;;;;;;2.10;1.80;;;;;;;;;;4288882;33;20483;-69
2021/10/06 12:30:21;;;;;;;3.40;2.70;;;;;;;;;;4285053;33;20103;-68
2021/10/06 12:32:48;;;;;;;3.05;1.90;;;;;;;;;;4288442;33;20106;-68
2021/10/06 12:35:21;;;;;;;8.80;2.53;;;;;;;;;;4287957;33;20116;-68
2021/10/06 12:37:54;;;;;;;6.15;2.78;;;;;;;;;;4286659;33;20108;-68
2021/10/06 12:40:46;;;;;;;3.65;2.28;;;;;;;;;;4287192;33;20115;-68
2021/10/06 12:43:19;;;;;;;4.15;3.22;;;;;;;;;;4284728;33;20224;-68
2021/10/06 12:46:04;;;;;;;3.92;2.95;;;;;;;;;;4288068;33;20153;-69
2021/10/06 12:48:37;;;;;;;4.45;3.35;;;;;;;;;;4289409;33;20127;-69
2021/10/06 12:51:04;;;;;;;6.93;3.40;;;;;;;;;;4290709;33;20123;-69
2021/10/06 12:53:30;;;;;;;8.10;4.00;;;;;;;;;;4287722;33;20175;-69
2021/10/06 12:55:57;;;;;;;10.18;3.85;;;;;;;;;;4288332;33;20107;-68
2021/10/06 12:58:23;;;;;;;9.52;3.97;;;;;;;;;;4289487;33;20114;-68
2021/10/06 13:00:50;;;;;;;5.75;3.10;;;;;;;;;;4288903;33;20599;-68
2021/10/06 13:03:15;;;;;;;6.78;3.10;;;;;;;;;;4290481;33;20224;-68
2021/10/06 13:05:41;;;;;;;4.30;3.62;;;;;;;;;;4290260;33;20111;-67
2021/10/06 13:08:14;;;;;;;7.00;5.03;;;;;;;;;;4289940;33;20155;-68
2021/10/06 13:10:41;;;;;;;7.37;3.47;;;;;;;;;;4290276;33;20091;-68
2021/10/06 13:13:06;;;;;;;5.47;3.22;;;;;;;;;;4289982;33;20199;-68
2021/10/06 13:15:32;;;;;;;4.95;3.10;;;;;;;;;;4289160;33;20210;-68
2021/10/06 13:17:58;;;;;;;4.72;3.40;;;;;;;;;;4288390;33;20108;-68
2021/10/06 13:20:24;;;;;;;5.43;3.37;;;;;;;;;;4289967;33;20531;-69
2021/10/06 13:22:50;;;;;;;6.35;4.03;;;;;;;;;;4288176;33;20111;-69
2021/10/06 13:25:16;;;;;;;12.13;4.15;;;;;;;;;;4290116;33;20119;-69
2021/10/06 13:27:41;;;;;;;5.20;3.87;;;;;;;;;;4290563;33;20119;-68
2021/10/06 13:30:08;;;;;;;7.57;3.42;;;;;;;;;;4290408;33;20108;-69
2021/10/06 13:32:36;;;;;;;5.28;3.33;;;;;;;;;;4290904;33;20150;-69
2021/10/06 13:35:02;;;;;;;12.93;3.70;;;;;;;;;;4289197;33;20126;-69
2021/10/06 13:37:28;;;;;;;7.78;3.83;;;;;;;;;;4290640;33;20092;-69
2021/10/06 13:39:54;;;;;;;3.78;2.75;;;;;;;;;;4290452;33;20439;-69
2021/10/06 13:42:20;;;;;;;4.68;2.53;;;;;;;;;;4290187;33;20108;-68
2021/10/06 13:44:46;;;;;;;8.07;3.20;;;;;;;;;;4290093;33;20195;-68
2021/10/06 13:47:12;;;;;;;11.60;3.40;;;;;;;;;;4289999;33;20617;-68
2021/10/06 13:49:38;;;;;;;7.75;2.80;;;;;;;;;;4289971;33;20131;-68
2021/10/06 13:52:04;;;;;;;7.75;2.50;;;;;;;;;;4290236;33;20111;-70
2021/10/06 13:54:30;;;;;;;11.43;2.92;;;;;;;;;;4288654;33;20210;-70
2021/10/06 13:56:55;;;;;;;9.02;3.97;;;;;;;;;;4289869;33;20156;-69
2021/10/06 13:59:21;;;;;;;3.30;2.47;;;;;;;;;;4289398;33;20143;-70
2021/10/06 14:01:47;;;;;;;5.37;2.40;;;;;;;;;;4289774;33;20294;-70
2021/10/06 14:04:14;;;;;;;5.32;2.58;;;;;;;;;;4288490;33;20586;-69
2021/10/06 14:06:40;;;;;;;7.40;2.62;;;;;;;;;;4288338;33;20203;-68
2021/10/06 14:09:05;;;;;;;7.18;2.67;;;;;;;;;;4290043;33;20135;-69
2021/10/06 14:11:31;;;;;;;3.42;2.53;;;;;;;;;;4289485;33;20096;-67
2021/10/06 14:13:57;;;;;;;5.47;2.72;;;;;;;;;;4288473;33;20456;-69
2021/10/06 14:16:23;;;;;;;8.55;2.92;;;;;;;;;;4288482;33;20126;-69
2021/10/06 14:18:49;;;;;;;6.53;3.08;;;;;;;;;;4289610;33;20214;-68
2021/10/06 14:21:16;;;;;;;11.95;3.28;;;;;;;;;;4288264;33;20135;-69
2021/10/06 14:23:42;;;;;;;6.07;2.90;;;;;;;;;;4289693;33;20118;-68
2021/10/06 14:26:07;;;;;;;8.80;3.28;;;;;;;;;;4289726;33;20115;-68
2021/10/06 14:28:33;;;;;;;15.90;3.12;;;;;;;;;;4289790;33;20553;-70
2021/10/06 14:30:59;;;;;;;7.90;3.12;;;;;;;;;;4289632;33;20116;-70
2021/10/06 14:33:26;;;;;;;7.25;3.37;;;;;;;;;;4289804;33;20087;-69
2021/10/06 14:35:52;;;;;;;6.37;3.87;;;;;;;;;;4288484;33;20115;-72
2021/10/06 14:38:18;;;;;;;11.30;5.53;;;;;;;;;;4288349;33;20160;-70
2021/10/06 14:40:44;;;;;;;23.58;11.38;;;;;;;;;;4289616;33;20103;-70
2021/10/06 14:43:10;;;;;;;34.40;17.58;;;;;;;;;;4288755;33;20171;-70
2021/10/06 14:45:36;;;;;;;24.87;9.75;;;;;;;;;;4289650;33;20116;-70
2021/10/06 14:48:02;;;;;;;19.87;8.27;;;;;;;;;;4276781;33;20448;-70
2021/10/06 14:50:28;;;;;;;21.85;7.93;;;;;;;;;;4289623;33;20104;-69
2021/10/06 14:52:54;;;;;;;17.85;8.45;;;;;;;;;;4289758;33;20522;-70
2021/10/06 14:55:20;;;;;;;21.73;10.38;;;;;;;;;;4275849;33;20108;-71
2021/10/06 14:57:46;;;;;;;14.73;9.98;;;;;;;;;;4274949;33;20500;-73
2021/10/06 15:00:12;;;;;;;16.58;9.65;;;;;;;;;;4284916;33;20102;-70